createdAt,value
2019-04-14T00:02:27.225Z,42.90
2019-04-14T00:05:08.277Z,43.80
2019-04-14T00:07:41.103Z,43.33
2019-04-14T00:10:16.052Z,47.10
2019-04-14T00:12:51.439Z,44.90
2019-04-14T00:15:47.051Z,43.53
2019-04-14T00:18:35.875Z,43.43
2019-04-14T00:21:09.038Z,42.07
2019-04-14T00:23:45.602Z,44.77
2019-04-14T00:26:31.562Z,45.75
2019-04-14T00:29:08.865Z,45.93
2019-04-14T00:32:09.435Z,41.50
2019-04-14T00:35:04.414Z,43.47
2019-04-14T00:38:01.232Z,45.10
2019-04-14T00:41:09.699Z,47.30
2019-04-14T00:43:50.914Z,45.20
2019-04-14T00:46:49.598Z,49.13
2019-04-14T00:49:24.716Z,44.20
2019-04-14T00:51:59.307Z,44.10
2019-04-14T00:54:34.427Z,44.70
2019-04-14T00:57:07.353Z,49.00
2019-04-14T00:59:42.763Z,44.50
2019-04-14T01:02:18.911Z,46.03
2019-04-14T01:04:53.391Z,50.10
2019-04-14T01:07:41.299Z,45.63
2019-04-14T01:10:14.881Z,50.50
2019-04-14T01:12:49.600Z,47.87
2019-04-14T01:15:22.284Z,47.03
2019-04-14T01:17:55.537Z,45.47
2019-04-14T01:20:30.109Z,47.80
2019-04-14T01:23:02.661Z,48.80
2019-04-14T01:25:35.394Z,49.63
2019-04-14T01:28:09.011Z,49.97
2019-04-14T01:30:43.706Z,49.83
2019-04-14T01:33:18.475Z,48.53
2019-04-14T01:35:53.074Z,49.10
2019-04-14T01:38:25.731Z,48.30
2019-04-14T01:40:59.910Z,51.97
2019-04-14T01:43:34.190Z,48.13
2019-04-14T01:46:14.758Z,52.90
2019-04-14T01:48:51.891Z,52.87
2019-04-14T01:51:35.986Z,55.03
2019-04-14T01:54:19.235Z,55.07
2019-04-14T01:57:13.210Z,55.50
2019-04-14T01:59:46.703Z,51.73
2019-04-14T02:02:22.683Z,53.80
2019-04-14T02:04:55.407Z,54.07
2019-04-14T02:07:29.748Z,53.53
2019-04-14T02:10:03.910Z,54.30
2019-04-14T02:12:36.624Z,54.90
2019-04-14T02:15:11.276Z,56.13
2019-04-14T02:17:46.107Z,56.40
2019-04-14T02:20:18.871Z,53.50
2019-04-14T02:22:51.567Z,59.83
2019-04-14T02:25:25.315Z,56.40
2019-04-14T02:28:00.128Z,58.63
2019-04-14T02:30:41.572Z,57.90
2019-04-14T02:33:44.459Z,54.37
2019-04-14T02:37:04.717Z,57.83
2019-04-14T02:40:33.386Z,56.33
2019-04-14T02:47:14.903Z,60.80
2019-04-14T02:50:38.613Z,59.13
2019-04-14T02:53:59.376Z,57.67
2019-04-14T03:00:23.907Z,55.93
2019-04-14T03:03:41.356Z,57.53
2019-04-14T03:06:50.161Z,52.03
2019-04-14T03:10:20.638Z,56.95
2019-04-14T03:13:28.828Z,56.73
2019-04-14T03:17:11.123Z,53.58
2019-04-14T03:20:47.517Z,53.23
2019-04-14T03:24:21.739Z,54.42
2019-04-14T03:27:41.890Z,52.63
2019-04-14T03:37:39.513Z,50.88
2019-04-14T03:40:54.219Z,49.57
2019-04-14T03:44:28.569Z,51.03
2019-04-14T03:47:56.259Z,50.60
2019-04-14T03:51:42.102Z,51.93
2019-04-14T03:54:44.120Z,52.60
2019-04-14T03:57:31.196Z,49.17
2019-04-14T04:00:09.501Z,53.33
2019-04-14T04:02:44.449Z,48.53
2019-04-14T04:05:17.385Z,51.33
2019-04-14T04:07:50.242Z,51.33
2019-04-14T04:10:27.061Z,49.03
2019-04-14T04:12:59.764Z,49.23
2019-04-14T04:15:34.264Z,49.27
2019-04-14T04:18:15.547Z,50.33
2019-04-14T04:20:54.486Z,51.23
2019-04-14T04:23:35.634Z,49.37
2019-04-14T04:26:17.422Z,48.77
2019-04-14T04:28:59.059Z,52.50
2019-04-14T04:31:37.487Z,51.33
2019-04-14T04:34:32.358Z,51.43
2019-04-14T04:37:13.102Z,50.67
2019-04-14T04:39:48.112Z,48.87
2019-04-14T04:42:20.471Z,51.17
2019-04-14T04:44:53.345Z,51.10
2019-04-14T04:47:25.842Z,53.00
2019-04-14T04:50:00.050Z,51.37
2019-04-14T04:52:36.528Z,50.27
2019-04-14T04:55:09.476Z,50.40
2019-04-14T04:57:46.015Z,50.53
2019-04-14T05:00:20.482Z,49.33
2019-04-14T05:02:53.601Z,46.63
2019-04-14T05:05:49.257Z,47.77
2019-04-14T05:08:24.061Z,46.87
2019-04-14T05:11:05.844Z,46.60
2019-04-14T05:13:40.250Z,47.67
2019-04-14T05:16:12.850Z,48.17
2019-04-14T05:18:46.819Z,52.83
2019-04-14T05:21:19.345Z,49.50
2019-04-14T05:23:51.858Z,46.90
2019-04-14T05:26:28.743Z,45.77
2019-04-14T05:29:03.492Z,45.40
2019-04-14T05:31:44.653Z,43.90
2019-04-14T05:34:21.568Z,45.23
2019-04-14T05:36:56.378Z,45.43
2019-04-14T05:39:29.101Z,43.73
2019-04-14T05:42:12.085Z,45.33
2019-04-14T05:44:51.518Z,45.08
2019-04-14T05:47:26.219Z,43.72
2019-04-14T05:49:59.423Z,44.37
2019-04-14T05:52:32.056Z,43.33
2019-04-14T05:55:06.625Z,44.37
2019-04-14T05:57:41.706Z,43.73
2019-04-14T06:00:19.068Z,41.10
2019-04-14T06:02:52.722Z,42.90
2019-04-14T06:05:28.242Z,42.80
2019-04-14T06:08:01.857Z,42.93
2019-04-14T06:10:34.887Z,43.72
2019-04-14T06:13:07.828Z,43.73
2019-04-14T06:15:41.020Z,42.23
2019-04-14T06:18:13.639Z,43.87
2019-04-14T06:20:46.611Z,41.97
2019-04-14T06:23:22.326Z,41.47
2019-04-14T06:25:54.790Z,38.63
2019-04-14T06:28:28.202Z,40.40
2019-04-14T06:31:12.461Z,40.83
2019-04-14T06:33:55.219Z,38.57
2019-04-14T06:36:33.507Z,39.90
2019-04-14T06:39:12.529Z,38.70
2019-04-14T06:41:45.094Z,38.70
2019-04-14T06:44:17.722Z,40.73
2019-04-14T06:46:51.046Z,41.20
2019-04-14T06:49:23.913Z,39.30
2019-04-14T06:51:56.467Z,39.83
2019-04-14T06:54:29.463Z,38.97
2019-04-14T06:57:14.285Z,37.67
2019-04-14T06:59:52.178Z,37.83
2019-04-14T07:02:26.580Z,38.23
2019-04-14T07:05:04.303Z,38.33
2019-04-14T07:07:37.027Z,39.80
2019-04-14T07:10:09.722Z,39.07
2019-04-14T07:12:43.546Z,41.47
2019-04-14T07:15:17.111Z,38.40
2019-04-14T07:17:49.842Z,39.83
2019-04-14T07:20:22.707Z,39.43
2019-04-14T07:22:55.299Z,40.60
2019-04-14T07:25:27.987Z,41.10
2019-04-14T07:28:00.775Z,36.97
2019-04-14T07:30:39.436Z,39.70
2019-04-14T07:33:27.659Z,38.33
2019-04-14T07:36:30.344Z,40.10
2019-04-14T07:39:11.715Z,37.97
2019-04-14T07:41:51.800Z,37.40
2019-04-14T07:44:46.161Z,38.20
2019-04-14T07:47:25.772Z,37.30
2019-04-14T07:50:18.350Z,36.10
2019-04-14T07:52:59.982Z,35.73
2019-04-14T07:55:40.291Z,32.90
2019-04-14T07:58:18.280Z,32.37
2019-04-14T08:01:10.210Z,34.60
2019-04-14T08:03:50.006Z,34.42
2019-04-14T08:06:23.543Z,32.97
2019-04-14T08:08:57.030Z,32.47
2019-04-14T08:11:29.643Z,31.57
2019-04-14T08:14:05.287Z,30.47
2019-04-14T08:16:38.659Z,29.73
2019-04-14T08:19:11.239Z,29.10
2019-04-14T08:21:44.457Z,30.13
2019-04-14T08:24:18.227Z,30.90
2019-04-14T08:26:50.937Z,29.73
2019-04-14T08:29:28.062Z,29.23
2019-04-14T08:32:04.259Z,28.40
2019-04-14T08:34:36.834Z,30.45
2019-04-14T08:37:13.798Z,27.07
2019-04-14T08:39:48.414Z,28.13
2019-04-14T08:42:52.699Z,28.10
2019-04-14T08:45:56.639Z,27.37
2019-04-14T08:49:01.965Z,28.33
2019-04-14T08:52:02.769Z,27.52
2019-04-14T08:54:46.843Z,24.57
2019-04-14T08:57:43.035Z,26.23
2019-04-14T09:00:27.877Z,25.50
2019-04-14T09:03:22.114Z,26.03
2019-04-14T09:06:05.385Z,22.57
2019-04-14T09:08:45.150Z,23.25
2019-04-14T09:11:32.837Z,21.27
2019-04-14T09:14:06.479Z,22.60
2019-04-14T09:16:39.620Z,21.55
2019-04-14T09:19:17.595Z,21.30
2019-04-14T09:21:52.134Z,20.00
2019-04-14T09:24:25.696Z,19.50
2019-04-14T09:27:02.128Z,18.70
2019-04-14T09:29:35.034Z,17.50
2019-04-14T09:32:12.951Z,18.80
2019-04-14T09:34:46.755Z,17.27
2019-04-14T09:37:20.848Z,17.60
2019-04-14T09:39:54.932Z,17.33
2019-04-14T09:42:27.585Z,17.73
2019-04-14T09:45:02.557Z,17.70
2019-04-14T09:47:36.037Z,19.57
2019-04-14T09:50:09.340Z,14.90
2019-04-14T09:52:42.164Z,15.60
2019-04-14T09:55:17.475Z,15.37
2019-04-14T09:57:51.086Z,17.67
2019-04-14T10:00:23.844Z,15.53
2019-04-14T10:02:57.331Z,16.20
2019-04-14T10:05:30.931Z,15.83
2019-04-14T10:08:07.046Z,17.17
2019-04-14T10:10:41.977Z,17.50
2019-04-14T10:13:15.065Z,15.43
2019-04-14T10:15:48.283Z,16.87
2019-04-14T10:18:22.162Z,16.53
2019-04-14T10:20:54.710Z,15.33
2019-04-14T10:23:29.054Z,16.13
2019-04-14T10:26:01.915Z,16.07
2019-04-14T10:28:34.534Z,15.97
2019-04-14T10:31:07.134Z,15.63
2019-04-14T10:33:40.813Z,16.50
2019-04-14T10:36:13.403Z,14.90
2019-04-14T10:38:47.011Z,14.87
2019-04-14T10:41:19.975Z,14.10
2019-04-14T10:43:53.594Z,15.93
2019-04-14T10:46:27.046Z,15.73
2019-04-14T10:49:00.153Z,14.43
2019-04-14T10:51:37.587Z,13.80
2019-04-14T10:54:10.615Z,15.17
2019-04-14T10:56:43.686Z,12.83
2019-04-14T10:59:18.973Z,14.73
2019-04-14T11:01:52.137Z,13.37
2019-04-14T11:04:26.369Z,13.70
2019-04-14T11:07:07.068Z,14.50
2019-04-14T11:09:43.240Z,14.47
2019-04-14T11:12:19.971Z,13.07
2019-04-14T11:14:52.686Z,13.57
2019-04-14T11:17:26.304Z,13.20
2019-04-14T11:20:01.991Z,13.30
2019-04-14T11:22:37.061Z,13.97
2019-04-14T11:25:09.711Z,13.33
2019-04-14T11:27:43.269Z,13.00
2019-04-14T11:30:19.964Z,14.13
2019-04-14T11:33:04.514Z,14.13
2019-04-14T11:35:49.655Z,13.33
2019-04-14T11:38:36.041Z,14.40
2019-04-14T11:41:19.352Z,13.37
2019-04-14T11:43:52.864Z,12.90
2019-04-14T11:46:27.664Z,15.20
2019-04-14T11:49:02.752Z,13.70
2019-04-14T11:51:37.631Z,14.50
2019-04-14T11:54:13.624Z,13.33
2019-04-14T11:56:46.838Z,15.00
2019-04-14T11:59:31.124Z,13.60
2019-04-14T12:02:19.610Z,15.70
2019-04-14T12:05:07.137Z,15.20
2019-04-14T12:07:50.080Z,14.97
2019-04-14T12:10:26.616Z,13.50
2019-04-14T12:13:07.256Z,13.27
2019-04-14T12:15:47.414Z,14.30
2019-04-14T12:18:27.532Z,14.57
2019-04-14T12:21:00.153Z,14.52
2019-04-14T12:23:39.045Z,13.90
2019-04-14T12:26:14.652Z,13.57
2019-04-14T12:28:49.349Z,13.17
2019-04-14T12:31:24.103Z,14.73
2019-04-14T12:34:11.724Z,14.53
2019-04-14T12:36:51.418Z,14.10
2019-04-14T12:39:30.064Z,14.93
2019-04-14T12:42:38.002Z,14.83
2019-04-14T12:45:21.312Z,14.17
2019-04-14T12:48:02.196Z,15.07
2019-04-14T12:50:46.190Z,15.37
2019-04-14T12:53:19.216Z,12.93
2019-04-14T12:55:53.845Z,14.90
2019-04-14T12:58:38.928Z,13.27
2019-04-14T13:01:13.082Z,14.60
2019-04-14T13:03:46.202Z,13.93
2019-04-14T13:06:20.467Z,13.93
2019-04-14T13:08:53.676Z,15.97
2019-04-14T13:11:32.163Z,14.53
2019-04-14T13:14:11.912Z,15.43
2019-04-14T13:16:48.842Z,15.23
2019-04-14T13:19:30.426Z,14.20
2019-04-14T13:22:03.155Z,14.30
2019-04-14T13:24:40.659Z,14.90
2019-04-14T13:27:14.370Z,14.30
2019-04-14T13:29:55.495Z,16.07
2019-04-14T13:32:35.987Z,14.70
2019-04-14T13:35:10.744Z,14.80
2019-04-14T13:37:47.834Z,15.52
2019-04-14T13:40:21.899Z,15.32
2019-04-14T13:42:54.437Z,14.37
2019-04-14T13:45:35.822Z,15.95
2019-04-14T13:48:34.477Z,16.23
2019-04-14T13:51:15.934Z,15.07
2019-04-14T13:53:51.091Z,14.57
2019-04-14T13:56:25.294Z,16.07
2019-04-14T13:58:59.929Z,16.17
2019-04-14T14:01:34.560Z,14.80
2019-04-14T14:04:08.919Z,17.87
2019-04-14T14:06:41.768Z,15.98
2019-04-14T14:09:14.790Z,14.60
2019-04-14T14:12:00.736Z,14.90
2019-04-14T14:14:50.835Z,16.67
2019-04-14T14:17:39.841Z,15.20
2019-04-14T14:20:27.262Z,15.73
2019-04-14T14:23:31.836Z,16.65
2019-04-14T14:26:30.750Z,15.23
2019-04-14T14:29:05.870Z,16.00
2019-04-14T14:31:39.606Z,14.40
2019-04-14T14:34:20.545Z,14.77
2019-04-14T14:36:55.544Z,14.03
2019-04-14T14:39:35.547Z,14.95
2019-04-14T14:42:12.438Z,15.27
2019-04-14T14:45:19.683Z,13.13
2019-04-14T14:48:11.133Z,13.37
2019-04-14T14:50:52.449Z,13.67
2019-04-14T14:53:34.026Z,14.87
2019-04-14T14:56:30.445Z,15.90
2019-04-14T14:59:03.656Z,13.07
2019-04-14T15:01:39.228Z,14.93
2019-04-14T15:04:15.772Z,14.55
2019-04-14T15:06:50.115Z,14.07
2019-04-14T15:09:26.609Z,13.60
2019-04-14T15:12:00.988Z,13.07
2019-04-14T15:14:36.425Z,15.43
2019-04-14T15:17:15.766Z,13.10
2019-04-14T15:19:50.692Z,14.82
2019-04-14T15:22:24.169Z,12.40
2019-04-14T15:24:59.193Z,13.00
2019-04-14T15:27:36.670Z,13.40
2019-04-14T15:30:15.898Z,13.93
2019-04-14T15:32:55.070Z,11.80
2019-04-14T15:35:30.199Z,11.37
2019-04-14T15:38:06.034Z,12.17
2019-04-14T15:40:39.120Z,12.40
2019-04-14T15:43:15.808Z,13.17
2019-04-14T15:45:54.289Z,13.13
2019-04-14T15:48:39.636Z,14.30
2019-04-14T15:51:33.360Z,14.30
2019-04-14T15:54:11.629Z,13.43
2019-04-14T15:56:53.242Z,13.82
2019-04-14T15:59:40.919Z,11.63
2019-04-14T16:02:39.456Z,12.57
2019-04-14T16:05:35.642Z,17.03
2019-04-14T16:08:24.755Z,13.30
2019-04-14T16:11:03.515Z,13.47
2019-04-14T16:13:45.662Z,13.13
2019-04-14T16:16:41.452Z,12.73
2019-04-14T16:19:27.295Z,14.63
2019-04-14T16:22:01.646Z,12.43
2019-04-14T16:24:56.665Z,13.13
2019-04-14T16:27:39.605Z,15.40
2019-04-14T16:30:29.190Z,16.33
2019-04-14T16:33:10.856Z,16.20
2019-04-14T16:35:46.742Z,17.30
2019-04-14T16:38:21.245Z,17.37
2019-04-14T16:40:55.878Z,19.13
2019-04-14T16:43:29.379Z,17.03
2019-04-14T16:46:02.719Z,15.67
2019-04-14T16:48:44.546Z,16.60
2019-04-14T16:51:24.117Z,17.47
2019-04-14T16:54:03.325Z,16.80
2019-04-14T16:56:50.280Z,18.30
2019-04-14T16:59:22.977Z,16.47
2019-04-14T17:02:10.170Z,14.43
2019-04-14T17:04:45.540Z,16.40
2019-04-14T17:07:19.837Z,16.97
2019-04-14T17:09:53.724Z,14.93
2019-04-14T17:12:27.073Z,16.00
2019-04-14T17:15:15.957Z,14.90
2019-04-14T17:17:56.550Z,16.03
2019-04-14T17:20:37.259Z,14.43
2019-04-14T17:23:30.986Z,15.20
2019-04-14T17:26:09.781Z,15.77
2019-04-14T17:29:02.599Z,14.77
2019-04-14T17:31:56.347Z,15.93
2019-04-14T17:35:03.038Z,14.73
2019-04-14T17:38:00.648Z,15.32
2019-04-14T17:40:54.509Z,12.37
2019-04-14T17:43:35.610Z,14.20
2019-04-14T17:46:29.060Z,14.30
2019-04-14T17:49:18.656Z,13.27
2019-04-14T17:52:14.991Z,14.73
2019-04-14T17:54:54.076Z,13.03
2019-04-14T17:57:48.456Z,14.50
2019-04-14T18:00:43.932Z,14.57
2019-04-14T18:03:27.505Z,12.80
2019-04-14T18:06:08.842Z,12.07
2019-04-14T18:09:00.797Z,14.40
2019-04-14T18:11:56.703Z,13.03
2019-04-14T18:14:45.625Z,14.70
2019-04-14T18:17:28.511Z,14.77
2019-04-14T18:20:09.450Z,13.80
2019-04-14T18:22:42.050Z,14.65
2019-04-14T18:25:18.187Z,15.07
2019-04-14T18:28:10.329Z,15.57
2019-04-14T18:31:01.377Z,15.07
2019-04-14T18:33:42.448Z,15.33
2019-04-14T18:36:34.450Z,14.90
2019-04-14T18:39:34.567Z,14.95
2019-04-14T18:42:28.164Z,14.53
2019-04-14T18:45:20.895Z,14.82
2019-04-14T18:48:03.366Z,15.13
2019-04-14T18:50:42.957Z,14.10
2019-04-14T18:53:24.836Z,16.03
2019-04-14T18:56:11.560Z,15.10
2019-04-14T18:58:58.081Z,14.65
2019-04-14T19:01:38.219Z,16.97
2019-04-14T19:04:10.833Z,14.98
2019-04-14T19:06:43.797Z,14.13
2019-04-14T19:09:18.393Z,13.73
2019-04-14T19:12:13.294Z,13.67
2019-04-14T19:15:06.765Z,14.45
2019-04-14T19:17:49.779Z,13.63
2019-04-14T19:20:31.686Z,13.90
2019-04-14T19:23:06.148Z,13.77
2019-04-14T19:25:39.452Z,15.83
2019-04-14T19:28:12.375Z,15.73
2019-04-14T19:30:45.354Z,15.15
2019-04-14T19:33:18.361Z,16.47
2019-04-14T19:35:55.332Z,15.27
2019-04-14T19:38:31.505Z,15.60
2019-04-14T19:41:05.452Z,14.30
2019-04-14T19:43:46.486Z,16.48
2019-04-14T19:46:20.636Z,16.00
2019-04-14T19:48:54.800Z,15.63
2019-04-14T19:51:34.347Z,15.20
2019-04-14T19:54:08.381Z,14.83
2019-04-14T19:56:42.664Z,14.07
2019-04-14T19:59:21.203Z,16.20
2019-04-14T20:01:57.943Z,15.00
2019-04-14T20:04:34.954Z,15.47
2019-04-14T20:07:08.078Z,13.40
2019-04-14T20:09:41.284Z,16.93
2019-04-14T20:12:14.922Z,14.93
2019-04-14T20:14:47.807Z,13.30
2019-04-14T20:17:40.873Z,13.95
2019-04-14T20:20:24.454Z,15.93
2019-04-14T20:23:19.003Z,13.30
2019-04-14T20:26:24.692Z,14.20
2019-04-14T20:29:05.092Z,14.40
2019-04-14T20:31:51.867Z,14.43
2019-04-14T20:34:25.429Z,13.07
2019-04-14T20:36:59.252Z,12.77
2019-04-14T20:39:33.529Z,12.90
2019-04-14T20:42:07.375Z,12.87
2019-04-14T20:44:40.387Z,10.30
2019-04-14T20:47:13.128Z,10.03
2019-04-14T20:49:45.800Z,10.17
2019-04-14T20:52:18.772Z,9.93
2019-04-14T20:54:51.523Z,9.30
2019-04-14T20:57:24.146Z,10.60
2019-04-14T21:00:01.120Z,10.50
2019-04-14T21:02:56.158Z,10.77
2019-04-14T21:05:52.829Z,11.13
2019-04-14T21:08:55.183Z,10.82
2019-04-14T21:11:35.351Z,10.83
2019-04-14T21:14:17.492Z,10.73
2019-04-14T21:17:03.482Z,10.63
2019-04-14T21:19:47.565Z,10.40
2019-04-14T21:22:34.791Z,9.83
2019-04-14T21:25:28.044Z,10.43
2019-04-14T21:28:28.068Z,9.73
2019-04-14T21:31:08.633Z,9.90
2019-04-14T21:33:56.512Z,9.93
2019-04-14T21:36:37.342Z,9.43
2019-04-14T21:39:31.833Z,9.80
2019-04-14T21:42:19.567Z,9.30
2019-04-14T21:44:53.915Z,8.70
2019-04-14T21:47:30.970Z,9.63
2019-04-14T21:50:07.390Z,9.43
2019-04-14T21:52:43.691Z,8.37
2019-04-14T21:55:22.040Z,8.73
2019-04-14T21:58:03.834Z,9.55
2019-04-14T22:01:40.815Z,8.87
2019-04-14T22:04:32.031Z,9.60
2019-04-14T22:07:19.863Z,9.53
2019-04-14T22:09:56.750Z,10.10
2019-04-14T22:12:35.742Z,10.67
2019-04-14T22:15:08.543Z,10.57
2019-04-14T22:17:45.365Z,11.10
2019-04-14T22:20:17.966Z,10.33
2019-04-14T22:22:50.672Z,10.13
2019-04-14T22:25:24.213Z,10.37
2019-04-14T22:27:56.926Z,12.55
2019-04-14T22:30:29.836Z,11.73
2019-04-14T22:33:03.703Z,10.80
2019-04-14T22:35:37.682Z,10.70
2019-04-14T22:38:10.766Z,11.53
2019-04-14T22:40:43.721Z,12.40
2019-04-14T22:43:17.715Z,11.97
2019-04-14T22:45:50.434Z,12.67
2019-04-14T22:48:23.291Z,12.30
2019-04-14T22:50:55.963Z,12.73
2019-04-14T22:53:29.187Z,13.05
2019-04-14T22:56:02.299Z,13.37
2019-04-14T22:58:34.819Z,12.50
2019-04-14T23:01:19.266Z,13.70
2019-04-14T23:04:12.483Z,12.53
2019-04-14T23:07:06.155Z,13.77
2019-04-14T23:09:53.418Z,13.27
2019-04-14T23:12:31.562Z,13.27
2019-04-14T23:15:25.739Z,13.13
2019-04-14T23:18:22.828Z,14.45
2019-04-14T23:21:16.887Z,14.03
2019-04-14T23:24:10.746Z,14.40
2019-04-14T23:26:52.385Z,13.60
2019-04-14T23:29:25.873Z,14.65
2019-04-14T23:31:58.783Z,13.70
2019-04-14T23:34:31.997Z,13.53
2019-04-14T23:37:05.407Z,13.00
2019-04-14T23:39:38.264Z,13.63
2019-04-14T23:42:10.853Z,14.27
2019-04-14T23:44:46.600Z,12.97
2019-04-14T23:47:19.422Z,13.27
2019-04-14T23:49:52.011Z,13.00
2019-04-14T23:52:25.973Z,13.70
2019-04-14T23:54:59.020Z,13.53
2019-04-14T23:57:32.003Z,13.00
